Portada
METAR-TAF:

METAR-TAF

Aeroports :

Labuan, Malàisia

latitud: 05-18N, longitud: 115-15E, altitud: 30 m

Observació

L'informe es va fer fa 36 minuts, a les 17:00 UTC
Vent 5 kt del Est/Nord-Est, variant entre Nord/Nord-Est i Est/Sud-Est
Temperatura 28°C
Humitat 84%
Pressió 1010 hPa
Visibilitat: 4000 m
Escasses núvols a una alçada de 1500 ft
Cel ennuvolat a una alçada de 29000 ft
calitja

METAR: WBKL 211700Z 06005KT 030V110 4000 HZ FEW015 BKN290 28/25 Q1010

Hora: 01:36 (17:36 UTC)

Pronòstic

L'informe es va fer fa 6 hores i 36 minuts, a les 11:00 UTC
Pronòstic vàlid del 21 a les 12 UTC al 22 a les 12 UTC
Vent 5 kt del Nord/Nord-Oest
Visibilitat: 4000 m
Escasses núvols a una alçada de 1500 ft
calitja

TAF: WBKL 211100Z 2112/2212 33005KT 4000 HZ FEW015

Observacions i pronòstics meteorològics de més de 4000 aeroports (METAR i TAF).

Les estacions disponibles són els punts grocs i vermells al mapa.

Posi el ratolí al punt desitjat per veure el nom de l'estació.

Feu clic per veure les observacions i els pronòstics meteorològics.

Per canviar el mapa: feu clic els botons verds amb una creu de color negre per apropar; al botó verd amb un guió per allunyar la imatge; o en les fletxes verdes per a mapes adjacents.


METAR-TAF: